Weather at Brussels Airport - EBBR


metar: EBBR 171250Z 22011KT 200V260 CAVOK 17/01 Q1019 NOSIG

22 minuten geleden, om 12:50 UTC, de wind blies met windsnelheden van 5.7 meter per seconde(12.7 mijl per uur) vanuit Zuidwest nabij Brussels airport. De temperatuur was 17 °C (63 °F), en de barometerdruk was 1,019 hPa (30.09 inHg). De relatieve vochtigheid was 33.9%. Er is geen bewolking beneden 1,524 meter (5,000 voet). De zichtbaarheid was >10 kilometer (>6.2 mijl).

temperature image   windir image sky image 

Last 24 hour graph Brussels Airport - EBBR